Time;durP1;ratioP1;P1;durP2;ratioP2;P2;SDS_P1;SDS_P2;PMS_P1;PMS_P2;Temp;Humidity;BMP_temperature;BMP_pressure;BME280_temperature;BME280_humidity;BME280_pressure;Samples;Min_cycle;Max_cycle;Signal;HPM_P1;HPM_P2
2022/10/26 00:00:44;;;;;;;9.27;5.35;;;;;;;11.30;100.00;101300.53;5076083;28;20023;-68
2022/10/26 00:03:10;;;;;;;11.38;5.60;;;;;;;11.31;100.00;101280.34;5080449;28;20456;-68
2022/10/26 00:05:35;;;;;;;11.75;6.00;;;;;;;11.30;100.00;101282.09;5084022;28;20378;-69
2022/10/26 00:08:01;;;;;;;9.45;5.50;;;;;;;11.33;100.00;101283.00;5091598;28;20028;-69
2022/10/26 00:10:27;;;;;;;15.80;5.75;;;;;;;11.34;100.00;101284.78;5088429;28;20468;-69
2022/10/26 00:12:52;;;;;;;9.25;5.15;;;;;;;11.32;100.00;101271.59;5080818;28;20028;-68
2022/10/26 00:15:19;;;;;;;15.88;5.05;;;;;;;11.32;100.00;101276.84;5089637;28;20066;-68
2022/10/26 00:17:45;;;;;;;13.68;5.07;;;;;;;11.34;100.00;101268.97;5083076;28;20448;-68
2022/10/26 00:20:11;;;;;;;9.60;4.80;;;;;;;11.32;100.00;101266.31;5085940;28;20165;-68
2022/10/26 00:22:37;;;;;;;7.55;5.03;;;;;;;11.31;100.00;101264.53;5083495;28;20029;-68
2022/10/26 00:25:02;;;;;;;8.18;5.35;;;;;;;11.32;100.00;101255.78;5093074;28;20479;-68
2022/10/26 00:27:28;;;;;;;11.65;5.32;;;;;;;11.30;100.00;101261.03;5088837;28;20028;-68
2022/10/26 00:29:53;;;;;;;9.90;4.50;;;;;;;11.29;100.00;101247.81;5085509;28;20026;-68
2022/10/26 00:32:18;;;;;;;8.50;5.10;;;;;;;11.30;100.00;101252.25;5091977;28;20363;-68
2022/10/26 00:34:44;;;;;;;8.68;5.07;;;;;;;11.28;100.00;101248.66;5086471;28;20020;-68
2022/10/26 00:37:09;;;;;;;10.02;5.28;;;;;;;11.28;100.00;101240.78;5087538;28;20043;-67
2022/10/26 00:39:34;;;;;;;13.05;5.05;;;;;;;11.27;100.00;101241.63;5092616;28;20055;-68
2022/10/26 00:41:59;;;;;;;6.85;5.10;;;;;;;11.28;100.00;101244.28;5089295;28;20102;-66
2022/10/26 00:44:47;;;;;;;9.02;5.15;;;;;;;11.27;100.00;101238.97;5091645;28;20096;-68
2022/10/26 00:47:22;;;;;;;14.20;5.10;;;;;;;11.25;100.00;101233.69;5076330;28;20492;-68
2022/10/26 00:49:50;;;;;;;6.75;5.00;;;;;;;11.26;100.00;101238.09;5087169;28;20520;-68
2022/10/26 00:52:17;;;;;;;10.60;5.35;;;;;;;11.27;100.00;101247.78;5095656;28;20482;-68
2022/10/26 00:54:43;;;;;;;9.70;5.45;;;;;;;11.29;100.00;101247.81;5094180;28;20019;-67
2022/10/26 00:57:11;;;;;;;8.20;4.82;;;;;;;11.30;100.00;101241.69;5089418;28;20062;-69
2022/10/26 00:59:37;;;;;;;11.48;5.13;;;;;;;11.31;100.00;101243.44;5092296;28;22701;-71
2022/10/26 01:02:02;;;;;;;11.73;5.50;;;;;;;11.32;100.00;101247.00;5083444;28;20028;-67
2022/10/26 01:04:27;;;;;;;10.10;5.32;;;;;;;11.32;100.00;101241.72;5086631;28;20024;-67
2022/10/26 01:06:53;;;;;;;11.25;5.40;;;;;;;11.32;100.00;101233.81;5089610;28;20107;-67
2022/10/26 01:09:19;;;;;;;11.98;4.90;;;;;;;11.35;100.00;101236.50;5093951;28;20047;-68
2022/10/26 01:11:45;;;;;;;10.45;4.90;;;;;;;11.36;100.00;101241.81;5084958;28;20108;-68
2022/10/26 01:14:13;;;;;;;10.80;5.35;;;;;;;11.38;100.00;101232.19;5079010;28;20060;-68
2022/10/26 01:17:02;;;;;;;13.07;4.70;;;;;;;11.38;100.00;101232.19;5082128;28;20024;-68
2022/10/26 01:20:06;;;;;;;15.85;6.05;;;;;;;11.39;100.00;101226.03;5087782;28;20107;-68
2022/10/26 01:22:48;;;;;;;6.30;4.22;;;;;;;11.41;100.00;101215.56;5076837;28;20027;-69
2022/10/26 01:25:31;;;;;;;11.10;5.65;;;;;;;11.42;100.00;101215.59;5088711;28;20584;-68
2022/10/26 01:27:57;;;;;;;7.65;4.78;;;;;;;11.43;100.00;101217.34;5085350;28;20357;-69
2022/10/26 01:30:39;;;;;;;10.75;4.45;;;;;;;11.41;100.00;101208.53;5087713;28;20031;-68
2022/10/26 01:33:32;;;;;;;7.47;4.40;;;;;;;11.41;100.00;101216.44;5092323;28;20051;-69
2022/10/26 01:36:12;;;;;;;13.35;5.13;;;;;;;11.40;100.00;101206.75;5092653;28;20379;-68
2022/10/26 01:38:56;;;;;;;9.60;4.82;;;;;;;11.39;100.00;101191.78;5081428;28;20397;-68
2022/10/26 01:41:27;;;;;;;13.07;4.63;;;;;;;11.40;100.00;101190.06;5080656;28;20426;-69
2022/10/26 01:44:04;;;;;;;11.23;5.35;;;;;;;11.38;100.00;101186.50;5077838;28;20527;-68
2022/10/26 01:46:35;;;;;;;15.52;5.38;;;;;;;11.38;100.00;101191.78;5080360;28;20131;-68
2022/10/26 01:49:07;;;;;;;8.20;4.90;;;;;;;11.37;100.00;101197.91;5087377;28;20024;-68
2022/10/26 01:51:34;;;;;;;12.48;5.25;;;;;;;11.35;100.00;101203.13;5081486;28;20085;-68
2022/10/26 01:53:59;;;;;;;12.70;6.20;;;;;;;11.39;100.00;101197.06;5077182;28;20036;-68
2022/10/26 01:56:27;;;;;;;10.15;5.80;;;;;;;11.37;100.00;101185.63;5081930;28;20032;-68
2022/10/26 01:59:14;;;;;;;16.05;5.50;;;;;;;11.40;100.00;101185.66;5088311;28;20107;-68
2022/10/26 02:01:50;;;;;;;12.93;5.30;;;;;;;11.40;100.00;101183.03;5086443;28;20026;-68
2022/10/26 02:04:28;;;;;;;10.85;5.15;;;;;;;11.42;100.00;101168.16;5083713;28;20055;-68
2022/10/26 02:06:59;;;;;;;14.32;5.85;;;;;;;11.44;100.00;101163.78;5076621;28;20074;-67
2022/10/26 02:09:30;;;;;;;11.10;5.10;;;;;;;11.44;100.00;101160.28;5081542;28;20024;-68
2022/10/26 02:11:57;;;;;;;10.73;5.18;;;;;;;11.48;100.00;101170.88;5089825;28;20042;-68
2022/10/26 02:14:25;;;;;;;9.57;5.28;;;;;;;11.49;100.00;101163.88;5090673;28;20023;-67
2022/10/26 02:16:55;;;;;;;13.27;5.07;;;;;;;11.51;100.00;101161.28;5093809;28;20041;-68
2022/10/26 02:19:26;;;;;;;14.32;4.70;;;;;;;11.54;100.00;101171.88;5093952;28;20024;-67
2022/10/26 02:22:00;;;;;;;11.77;5.45;;;;;;;11.57;100.00;101172.81;5091610;28;20031;-69
2022/10/26 02:24:26;;;;;;;;;;;;;;;11.56;100.00;101172.78;5094170;28;20031;-68
2022/10/26 02:26:55;;;;;;;11.35;5.60;;;;;;;11.58;100.00;101184.22;5086605;28;19912;-69
2022/10/26 02:29:22;;;;;;;12.90;5.45;;;;;;;11.58;100.00;101173.69;5092127;28;20059;-67
2022/10/26 02:31:49;;;;;;;9.55;4.70;;;;;;;11.58;100.00;101176.31;5089939;28;20070;-67
2022/10/26 02:34:19;;;;;;;9.65;5.10;;;;;;;11.55;100.00;101173.66;5078153;28;20036;-68
2022/10/26 02:36:48;;;;;;;14.68;5.35;;;;;;;11.52;100.00;101173.59;5093836;28;20073;-67
2022/10/26 02:39:16;;;;;;;10.35;5.28;;;;;;;11.52;100.00;101168.34;5091725;28;20483;-68
2022/10/26 02:41:44;;;;;;;12.82;5.57;;;;;;;11.47;100.00;101162.97;5089707;28;20070;-68
2022/10/26 02:44:22;;;;;;;8.80;5.32;;;;;;;11.44;100.00;101166.41;5090469;28;20066;-67
2022/10/26 02:46:48;;;;;;;13.25;6.47;;;;;;;11.38;100.00;101166.34;5086887;28;20023;-68
2022/10/26 02:56:03;;;;;;;14.27;5.82;;;;;;;11.34;100.00;101169.78;5091086;28;20085;-67
2022/10/26 02:58:32;;;;;;;11.98;5.93;;;;;;;11.34;100.00;101168.84;5083109;28;20047;-67
2022/10/26 03:00:58;;;;;;;10.00;6.07;;;;;;;11.33;100.00;101164.44;5089012;28;20035;-67
2022/10/26 03:03:23;;;;;;;9.90;6.18;;;;;;;11.32;100.00;101153.03;5093561;28;20032;-66
2022/10/26 03:05:49;;;;;;;11.88;6.45;;;;;;;11.32;100.00;101155.66;5093574;28;20028;-68
2022/10/26 03:08:14;;;;;;;14.70;6.30;;;;;;;11.34;100.00;101153.97;5076946;28;20127;-67
2022/10/26 03:10:42;;;;;;;10.50;6.07;;;;;;;11.32;100.00;101154.78;5091607;28;20028;-67
2022/10/26 03:13:08;;;;;;;11.68;6.68;;;;;;;11.32;100.00;101142.50;5092260;28;20415;-69
2022/10/26 03:15:34;;;;;;;13.68;7.28;;;;;;;11.31;100.00;101148.59;5082784;28;20033;-69
2022/10/26 03:17:59;;;;;;;14.50;6.70;;;;;;;11.29;100.00;101145.94;5089764;28;20429;-68
2022/10/26 03:20:24;;;;;;;10.93;6.22;;;;;;;11.28;100.00;101140.66;5087013;28;20058;-68
2022/10/26 03:22:50;;;;;;;10.57;6.28;;;;;;;11.27;100.00;101139.78;5087114;28;20028;-69
2022/10/26 03:25:15;;;;;;;11.02;6.45;;;;;;;11.27;100.00;101134.50;5093041;28;20115;-67
2022/10/26 03:27:41;;;;;;;16.80;7.10;;;;;;;11.28;100.00;101138.03;5081753;28;20126;-67
2022/10/26 03:30:07;;;;;;;11.40;6.22;;;;;;;11.28;100.00;101133.63;5073416;28;20034;-68
2022/10/26 03:32:32;;;;;;;8.70;6.03;;;;;;;11.29;100.00;101135.41;5085059;28;20016;-68
2022/10/26 03:34:58;;;;;;;10.32;6.00;;;;;;;11.30;100.00;101138.97;5083344;28;20111;-68
2022/10/26 03:37:23;;;;;;;13.73;6.30;;;;;;;11.32;100.00;101134.59;5087611;28;20028;-68
2022/10/26 03:39:49;;;;;;;12.32;6.63;;;;;;;11.34;100.00;101137.25;5088601;28;20036;-68
2022/10/26 03:42:14;;;;;;;10.88;6.05;;;;;;;11.33;100.00;101139.00;5093360;28;20060;-68
2022/10/26 03:44:39;;;;;;;15.98;6.22;;;;;;;11.33;100.00;101125.81;5088666;28;20094;-68
2022/10/26 03:47:04;;;;;;;16.25;7.30;;;;;;;11.33;100.00;101132.81;5085935;28;20036;-68
2022/10/26 03:49:30;;;;;;;10.52;6.40;;;;;;;11.28;100.00;101128.38;5088491;28;20455;-68
2022/10/26 03:51:55;;;;;;;10.90;6.15;;;;;;;11.28;100.00;101123.09;5091682;28;20024;-69
2022/10/26 03:54:20;;;;;;;10.95;6.45;;;;;;;11.29;100.00;101131.91;5086634;28;20095;-68
2022/10/26 03:56:46;;;;;;;12.00;5.93;;;;;;;11.30;100.00;101125.78;5078955;28;20039;-68
2022/10/26 03:59:11;;;;;;;12.18;6.15;;;;;;;11.32;100.00;101123.16;5089038;28;20044;-68
2022/10/26 04:01:36;;;;;;;14.30;6.20;;;;;;;11.32;100.00;101123.16;5084155;28;20078;-68
2022/10/26 04:04:01;;;;;;;8.35;6.30;;;;;;;11.32;100.00;101126.69;5092555;28;20028;-67
2022/10/26 04:06:27;;;;;;;12.90;6.18;;;;;;;11.30;100.00;101120.50;5087403;28;20028;-68
2022/10/26 04:08:57;;;;;;;13.02;6.35;;;;;;;11.31;100.00;101122.25;5088143;28;20043;-68
2022/10/26 04:11:22;;;;;;;14.88;5.88;;;;;;;11.33;100.00;101125.81;5082392;28;20025;-67
2022/10/26 04:13:47;;;;;;;11.55;5.82;;;;;;;11.37;100.00;101126.78;5090767;28;20043;-67
2022/10/26 04:16:13;;;;;;;13.07;5.78;;;;;;;11.35;100.00;101121.47;5088272;28;20467;-67
2022/10/26 04:18:38;;;;;;;8.10;5.15;;;;;;;11.35;100.00;101123.22;5092922;28;20059;-68
2022/10/26 04:21:03;;;;;;;16.77;5.78;;;;;;;11.34;100.00;101127.63;5082885;28;20085;-68
2022/10/26 04:23:29;;;;;;;9.45;6.07;;;;;;;11.34;100.00;101121.44;5087134;28;20052;-68
2022/10/26 04:25:54;;;;;;;16.40;6.03;;;;;;;11.36;100.00;101131.16;5090562;28;20036;-68
2022/10/26 04:28:19;;;;;;;10.32;5.07;;;;;;;11.38;100.00;101125.91;5081244;28;20025;-68
2022/10/26 04:30:46;;;;;;;11.52;6.25;;;;;;;11.42;100.00;101130.34;5071114;28;20025;-67
2022/10/26 04:33:12;;;;;;;9.63;5.07;;;;;;;11.41;100.00;101137.38;5090066;28;20036;-68
2022/10/26 04:35:37;;;;;;;8.90;5.10;;;;;;;11.42;100.00;101127.72;5086740;28;20039;-67
2022/10/26 04:38:05;;;;;;;13.23;5.35;;;;;;;11.46;100.00;101129.56;5087425;28;20033;-67
2022/10/26 04:40:32;;;;;;;9.50;5.22;;;;;;;11.48;100.00;101125.22;5083610;28;20056;-68
2022/10/26 04:42:58;;;;;;;12.57;5.70;;;;;;;11.47;100.00;101124.31;5076082;28;20028;-68
2022/10/26 04:45:24;;;;;;;8.93;5.25;;;;;;;11.48;100.00;101126.09;5092348;28;20379;-67
2022/10/26 04:47:59;;;;;;;12.40;5.90;;;;;;;11.51;100.00;101124.38;5080702;28;20032;-68
2022/10/26 04:50:24;;;;;;;11.65;5.20;;;;;;;11.52;100.00;101121.78;5089621;28;20095;-69
2022/10/26 04:52:50;;;;;;;9.63;5.20;;;;;;;11.53;100.00;101123.56;5092381;28;20024;-68
2022/10/26 04:55:16;;;;;;;13.90;5.82;;;;;;;11.54;100.00;101116.53;5094654;28;20111;-68
2022/10/26 04:57:43;;;;;;;10.07;5.53;;;;;;;11.58;100.00;101126.25;5089790;28;20056;-69
2022/10/26 05:00:09;;;;;;;11.38;4.90;;;;;;;11.56;100.00;101120.09;5093676;28;20467;-68
2022/10/26 05:02:35;;;;;;;13.02;5.32;;;;;;;11.58;100.00;101120.97;5091483;28;20028;-68
2022/10/26 05:05:00;;;;;;;8.45;4.57;;;;;;;11.58;100.00;101121.84;5080234;28;20035;-67
2022/10/26 05:07:25;;;;;;;9.98;5.22;;;;;;;11.62;100.00;101122.81;5092421;28;20034;-69
2022/10/26 05:09:51;;;;;;;12.15;5.35;;;;;;;11.61;100.00;101129.84;5086876;28;20524;-68
2022/10/26 05:12:16;;;;;;;9.25;4.70;;;;;;;11.62;100.00;101128.97;5085247;28;20036;-68
2022/10/26 05:14:41;;;;;;;12.30;5.50;;;;;;;11.62;100.00;101118.44;5090784;28;20016;-68
2022/10/26 05:17:07;;;;;;;9.55;5.65;;;;;;;11.62;100.00;101122.81;5094823;28;20058;-68
2022/10/26 05:19:32;;;;;;;8.18;6.13;;;;;;;11.61;100.00;101108.75;5094758;28;20027;-68
2022/10/26 05:21:58;;;;;;;10.27;5.40;;;;;;;11.64;100.00;101113.19;5084669;28;20074;-67
2022/10/26 05:24:23;;;;;;;12.88;5.47;;;;;;;11.68;100.00;101115.00;5090545;28;20031;-68
2022/10/26 05:26:48;;;;;;;9.43;5.32;;;;;;;11.69;100.00;101124.66;5092011;28;20031;-68
2022/10/26 05:29:14;;;;;;;10.77;5.80;;;;;;;11.69;100.00;101124.66;5093937;28;20023;-68
2022/10/26 05:31:39;;;;;;;11.55;5.00;;;;;;;11.71;100.00;101125.59;5090659;28;20032;-68
2022/10/26 05:34:04;;;;;;;8.15;4.90;;;;;;;11.71;100.00;101117.69;5086657;28;20452;-68
2022/10/26 05:36:30;;;;;;;22.27;6.22;;;;;;;11.73;100.00;101121.22;5081751;28;20016;-67
2022/10/26 05:38:59;;;;;;;8.38;5.10;;;;;;;11.73;100.00;101126.50;5094719;28;20077;-68
2022/10/26 05:41:25;;;;;;;15.82;5.47;;;;;;;11.73;100.00;101121.22;5089428;28;20016;-68
2022/10/26 05:43:50;;;;;;;12.45;5.13;;;;;;;11.72;100.00;101118.56;5078244;28;20024;-68
2022/10/26 05:46:15;;;;;;;10.35;4.90;;;;;;;11.69;100.00;101116.75;5083904;28;20035;-68
2022/10/26 05:48:41;;;;;;;7.53;4.95;;;;;;;11.71;100.00;101117.69;5090476;28;20024;-68
2022/10/26 05:51:06;;;;;;;10.18;5.07;;;;;;;11.72;100.00;101113.28;5083880;28;20035;-68
2022/10/26 05:53:32;;;;;;;10.88;5.38;;;;;;;11.71;100.00;101122.09;5092554;28;20111;-68
2022/10/26 05:55:58;;;;;;;11.80;5.93;;;;;;;11.72;100.00;101116.84;5088686;28;20065;-68
2022/10/26 05:58:23;;;;;;;16.55;5.40;;;;;;;11.70;100.00;101113.28;5082123;28;20076;-71
2022/10/26 06:01:18;;;;;;;11.38;6.10;;;;;;;11.68;100.00;101111.47;5089860;28;20035;-68
2022/10/26 06:04:08;;;;;;;9.48;5.10;;;;;;;11.66;100.00;101103.53;5082727;28;20053;-68
2022/10/26 06:06:40;;;;;;;10.10;5.07;;;;;;;11.68;100.00;101112.38;5093294;28;20042;-69
2022/10/26 06:09:09;;;;;;;16.70;5.60;;;;;;;11.67;100.00;101110.59;5079366;28;20025;-69
2022/10/26 06:11:35;;;;;;;9.98;5.55;;;;;;;11.69;100.00;101118.53;5092544;28;20122;-68
2022/10/26 06:14:02;;;;;;;6.00;4.80;;;;;;;11.68;100.00;101117.66;5086542;28;20464;-68
2022/10/26 06:16:41;;;;;;;11.05;5.10;;;;;;;11.67;100.00;101121.13;5088293;28;20456;-68
2022/10/26 06:19:51;;;;;;;14.65;5.60;;;;;;;11.67;100.00;101121.13;5094091;28;20030;-68
2022/10/26 06:22:31;;;;;;;9.05;5.03;;;;;;;11.69;100.00;101124.66;5091515;28;20024;-68
2022/10/26 06:25:03;;;;;;;14.02;5.40;;;;;;;11.68;100.00;101122.00;5087741;28;20059;-69
2022/10/26 06:27:41;;;;;;;12.23;5.70;;;;;;;11.66;100.00;101119.34;5089357;28;20329;-68
2022/10/26 06:30:10;;;;;;;6.95;4.88;;;;;;;11.64;100.00;101118.47;5090374;28;20133;-69
2022/10/26 06:32:37;;;;;;;14.80;5.57;;;;;;;11.64;100.00;101121.09;5085739;28;20037;-68
2022/10/26 06:35:13;;;;;;;10.15;5.88;;;;;;;11.62;100.00;101122.81;5090169;28;20369;-67
2022/10/26 06:37:43;;;;;;;12.60;5.63;;;;;;;11.62;100.00;101125.44;5094831;28;20536;-68
2022/10/26 06:40:11;;;;;;;7.78;5.50;;;;;;;11.63;100.00;101120.19;5082808;28;20024;-70
2022/10/26 06:42:37;;;;;;;11.00;5.05;;;;;;;11.62;100.00;101120.16;5084283;28;20035;-75
2022/10/26 06:45:02;;;;;;;16.40;5.60;;;;;;;11.63;100.00;101130.72;5092028;28;20024;-69
2022/10/26 06:47:45;;;;;;;12.65;5.60;;;;;;;11.62;100.00;101128.06;5085265;28;20090;-70
2022/10/26 06:50:45;;;;;;;12.40;5.80;;;;;;;11.65;100.00;101143.94;5080696;28;20055;-68
2022/10/26 06:53:17;;;;;;;14.02;5.72;;;;;;;11.64;100.00;101140.44;5085739;28;20069;-67
2022/10/26 06:55:45;;;;;;;10.98;6.03;;;;;;;11.66;100.00;101145.72;5080501;28;20127;-67
2022/10/26 06:58:19;;;;;;;11.57;6.30;;;;;;;11.67;100.00;101141.34;5084799;28;20392;-68
2022/10/26 07:00:47;;;;;;;9.13;5.80;;;;;;;11.67;100.00;101139.59;5093106;28;20024;-68
2022/10/26 07:03:13;;;;;;;12.45;5.70;;;;;;;11.70;100.00;101141.41;5088484;28;20090;-68
2022/10/26 07:05:38;;;;;;;11.57;5.93;;;;;;;11.72;100.00;101140.56;5082028;28;20448;-68
2022/10/26 07:08:04;;;;;;;12.50;6.22;;;;;;;11.71;100.00;101128.22;5079844;28;20089;-68
2022/10/26 07:10:29;;;;;;;12.55;6.07;;;;;;;11.72;100.00;101130.00;5079477;28;20482;-68
2022/10/26 07:12:55;;;;;;;11.65;5.72;;;;;;;11.72;100.00;101139.66;5091184;28;20412;-68
2022/10/26 07:15:20;;;;;;;15.63;5.97;;;;;;;11.75;100.00;101155.53;5086021;28;20075;-67
2022/10/26 07:17:48;;;;;;;11.00;5.18;;;;;;;11.76;100.00;101167.84;5080024;28;20081;-68
2022/10/26 07:20:15;;;;;;;14.77;5.47;;;;;;;11.79;100.00;101168.78;5085960;28;20028;-67
2022/10/26 07:22:41;;;;;;;11.55;5.75;;;;;;;11.82;100.00;101163.56;5087772;28;20039;-67
2022/10/26 07:25:08;;;;;;;12.27;5.22;;;;;;;11.88;100.00;101168.06;5070341;28;20030;-69
2022/10/26 07:27:34;;;;;;;11.68;5.97;;;;;;;11.92;100.00;101169.00;5075401;28;20039;-69
2022/10/26 07:30:00;;;;;;;9.00;5.63;;;;;;;11.97;100.00;101177.91;5083194;28;20029;-68
2022/10/26 07:32:25;;;;;;;10.98;5.35;;;;;;;12.00;100.00;101172.66;5082954;28;20078;-67
2022/10/26 07:34:51;;;;;;;8.82;5.88;;;;;;;12.06;100.00;101180.69;5073341;28;20020;-68
2022/10/26 07:37:16;;;;;;;8.63;4.90;;;;;;;12.09;100.00;101187.78;5073940;28;20028;-68
2022/10/26 07:39:42;;;;;;;10.32;5.07;;;;;;;12.12;100.00;101199.25;5076675;28;20092;-68
2022/10/26 07:42:08;;;;;;;14.40;5.30;;;;;;;12.22;100.00;101199.38;5077959;28;20086;-68
2022/10/26 07:44:33;;;;;;;7.68;4.40;;;;;;;12.29;100.00;101201.28;5085646;28;20641;-68
2022/10/26 07:46:59;;;;;;;10.05;4.75;;;;;;;12.37;100.00;101204.91;5078562;28;20032;-69
2022/10/26 07:49:25;;;;;;;10.10;4.35;;;;;;;12.47;100.00;101204.16;5078279;28;20028;-69
2022/10/26 07:51:51;;;;;;;10.10;4.63;;;;;;;12.55;100.00;101211.34;5076436;28;20036;-68
2022/10/26 07:54:16;;;;;;;10.07;4.55;;;;;;;12.63;100.00;101220.25;5081564;28;20032;-67
2022/10/26 07:56:42;;;;;;;8.20;4.30;;;;;;;12.71;100.00;101225.63;5089800;28;20038;-69
2022/10/26 07:59:08;;;;;;;9.48;4.13;;;;;;;12.78;100.00;101217.81;5088209;28;20405;-69
2022/10/26 08:01:34;;;;;;;9.23;3.40;;;;;;;12.87;100.00;101226.72;5071229;28;20038;-68
2022/10/26 08:04:00;;;;;;;9.38;3.90;;;;;;;12.97;100.00;101221.56;5071650;28;20538;-68
2022/10/26 08:06:25;;;;;;;6.40;3.35;;;;;;;13.09;100.00;101212.91;5083287;28;20115;-68
2022/10/26 08:08:51;;;;;;;7.72;3.50;;;;;;;13.24;100.00;101219.22;5088465;28;20036;-69
2022/10/26 08:11:16;;;;;;;5.88;3.35;;;;;;;13.36;100.00;101210.59;5087080;28;20093;-68
2022/10/26 08:13:42;;;;;;;7.13;3.40;;;;;;;13.48;100.00;101203.72;5066283;28;20031;-67
2022/10/26 08:16:08;;;;;;;5.82;3.40;;;;;;;13.59;100.00;101203.81;5072939;28;20028;-69
2022/10/26 08:18:33;;;;;;;5.55;3.13;;;;;;;13.70;100.00;101211.84;5072729;28;20123;-68
2022/10/26 08:21:08;;;;;;;10.15;3.00;;;;;;;13.84;100.00;101209.31;5078601;28;20480;-69
2022/10/26 08:23:33;;;;;;;10.63;2.97;;;;;;;13.95;100.00;101204.13;5080288;28;20039;-68
2022/10/26 08:26:00;;;;;;;7.70;3.15;;;;;;;14.07;100.00;101196.28;5085258;28;20103;-68
2022/10/26 08:28:26;;;;;;;9.18;3.03;;;;;;;14.18;100.00;101203.44;5085811;28;20150;-68
2022/10/26 08:30:52;;;;;;;7.90;2.85;;;;;;;14.31;100.00;101197.31;5088096;28;20116;-68
2022/10/26 08:33:17;;;;;;;4.75;2.33;;;;;;;14.47;100.00;101203.63;5081193;28;20035;-68
2022/10/26 08:35:42;;;;;;;5.18;2.28;;;;;;;14.63;100.00;101213.44;5080865;28;20060;-69
2022/10/26 08:38:08;;;;;;;9.45;2.55;;;;;;;14.77;100.00;101213.56;5090593;28;20052;-67
2022/10/26 08:40:38;;;;;;;10.48;2.75;;;;;;;14.98;100.00;101214.53;5095440;28;20082;-68
2022/10/26 08:43:14;;;;;;;12.18;3.47;;;;;;;15.14;100.00;101224.31;5089781;28;20035;-67
2022/10/26 08:46:03;;;;;;;8.23;2.47;;;;;;;15.33;100.00;101237.63;5089781;28;20024;-68
2022/10/26 08:48:34;;;;;;;5.72;2.33;;;;;;;15.50;100.00;101249.19;5088782;28;20028;-68
2022/10/26 08:51:23;;;;;;;9.68;2.33;;;;;;;15.70;100.00;101253.63;5079015;28;20032;-70
2022/10/26 08:53:51;;;;;;;6.30;2.92;;;;;;;15.85;100.00;101244.84;5087695;28;20039;-68
2022/10/26 08:56:24;;;;;;;4.85;2.22;;;;;;;15.99;100.00;101240.44;5085072;28;20024;-69
2022/10/26 08:59:11;;;;;;;6.70;2.28;;;;;;;16.04;100.00;101240.44;5081731;28;20048;-68
2022/10/26 09:01:36;;;;;;;5.30;2.13;;;;;;;16.00;100.00;101251.94;5077070;28;20031;-67
2022/10/26 09:04:03;;;;;;;17.42;3.20;;;;;;;16.02;100.00;101251.06;5090040;28;20028;-67
2022/10/26 09:06:42;;;;;;;8.43;2.30;;;;;;;15.97;100.00;101249.28;5094334;28;20094;-66
2022/10/26 09:09:13;;;;;;;9.07;2.45;;;;;;;16.06;100.00;101251.97;5096122;28;20372;-68
2022/10/26 09:11:57;;;;;;;9.50;3.00;;;;;;;16.26;100.00;101264.34;5092862;28;20054;-67
2022/10/26 09:14:37;;;;;;;12.73;2.92;;;;;;;16.42;100.00;101266.09;5082290;28;20373;-67
2022/10/26 09:17:30;;;;;;;9.30;2.05;;;;;;;16.45;100.00;101268.72;5088908;28;20024;-69
2022/10/26 09:20:17;;;;;;;8.00;2.60;;;;;;;16.55;100.00;101266.06;5084697;28;20028;-70
2022/10/26 09:22:58;;;;;;;5.57;2.40;;;;;;;16.56;100.00;101265.19;5082498;28;20021;-69
2022/10/26 09:25:29;;;;;;;11.63;2.67;;;;;;;16.73;100.00;101278.47;5089747;28;20425;-68
2022/10/26 09:27:57;;;;;;;8.13;2.53;;;;;;;16.67;100.00;101272.25;5087473;28;20384;-70
2022/10/26 09:30:23;;;;;;;5.85;2.38;;;;;;;16.74;100.00;101273.13;5078300;28;20024;-68
2022/10/26 09:32:57;;;;;;;8.52;2.78;;;;;;;16.82;100.00;101276.66;5083364;28;20503;-70
2022/10/26 09:35:41;;;;;;;12.65;3.25;;;;;;;16.94;100.00;101270.47;5094661;28;20061;-70
2022/10/26 09:38:19;;;;;;;7.70;2.38;;;;;;;17.03;100.00;101278.38;5084369;28;20028;-69
2022/10/26 09:40:58;;;;;;;7.53;2.10;;;;;;;17.08;100.00;101280.16;5084640;28;20033;-69
2022/10/26 09:43:45;;;;;;;5.22;2.22;;;;;;;17.15;100.00;101285.44;5087913;28;20376;-70
2022/10/26 09:46:20;;;;;;;9.38;2.20;;;;;;;17.41;100.00;101291.56;5082872;28;20036;-69
2022/10/26 09:48:53;;;;;;;5.43;2.10;;;;;;;17.31;100.00;101304.91;5087064;28;20677;-68
2022/10/26 09:51:18;;;;;;;9.48;2.42;;;;;;;17.28;100.00;101310.25;5088826;28;20361;-68
2022/10/26 09:53:44;;;;;;;7.28;2.22;;;;;;;17.00;100.00;101310.31;5086833;28;20027;-66
2022/10/26 09:56:12;;;;;;;6.07;2.25;;;;;;;16.89;100.00;101309.47;5091273;28;20135;-67
2022/10/26 09:58:43;;;;;;;6.15;2.17;;;;;;;16.79;100.00;101318.28;5086336;28;20047;-72
2022/10/26 10:01:21;;;;;;;4.43;2.20;;;;;;;16.90;100.00;101331.59;5084030;28;20020;-67
2022/10/26 10:03:47;;;;;;;10.77;2.30;;;;;;;16.95;100.00;101329.81;5093775;28;20028;-67
2022/10/26 10:06:18;;;;;;;11.77;2.45;;;;;;;17.01;100.00;101335.13;5095564;28;20070;-67
2022/10/26 10:09:02;;;;;;;11.50;2.85;;;;;;;17.08;100.00;101334.22;5087536;28;20381;-68
2022/10/26 10:11:56;;;;;;;7.38;2.42;;;;;;;17.05;100.00;101350.19;5080721;28;20504;-67
2022/10/26 10:14:27;;;;;;;5.47;2.30;;;;;;;16.98;100.00;101351.09;5082060;28;20032;-66
2022/10/26 10:17:07;;;;;;;4.75;2.35;;;;;;;16.96;100.00;101366.16;5092315;28;20077;-65
2022/10/26 10:19:34;;;;;;;6.43;2.65;;;;;;;16.86;100.00;101363.47;5093859;28;20039;-66
2022/10/26 10:22:15;;;;;;;12.00;2.60;;;;;;;16.77;100.00;101362.63;5082084;28;20108;-67
2022/10/26 10:24:51;;;;;;;6.75;2.13;;;;;;;16.68;100.00;101368.81;5090939;28;20026;-67
2022/10/26 10:27:17;;;;;;;9.40;2.40;;;;;;;16.65;100.00;101376.78;5081635;28;20036;-67
2022/10/26 10:29:48;;;;;;;6.47;2.30;;;;;;;16.64;100.00;101375.00;5077482;28;20038;-67
2022/10/26 10:32:16;;;;;;;6.13;2.42;;;;;;;16.59;100.00;101377.69;5092201;28;20024;-67
2022/10/26 10:34:43;;;;;;;7.40;1.98;;;;;;;16.67;100.00;101367.03;5083465;28;20081;-67
2022/10/26 10:37:29;;;;;;;9.27;3.35;;;;;;;16.64;100.00;101372.34;5085986;28;20031;-67
2022/10/26 10:39:57;;;;;;;9.93;2.25;;;;;;;16.68;100.00;101383.00;5075513;28;20043;-68
2022/10/26 10:42:31;;;;;;;6.65;2.47;;;;;;;16.74;100.00;101387.41;5085550;28;20353;-67
2022/10/26 10:44:57;;;;;;;7.18;2.45;;;;;;;16.78;100.00;101378.56;5080120;28;20510;-68
2022/10/26 10:47:31;;;;;;;7.80;2.45;;;;;;;16.86;100.00;101389.16;5080736;28;20107;-67
2022/10/26 10:50:01;;;;;;;4.18;2.17;;;;;;;16.92;100.00;101398.97;5079088;28;20086;-67
2022/10/26 10:52:32;;;;;;;5.95;2.50;;;;;;;16.96;100.00;101392.75;5089364;28;20024;-67
2022/10/26 10:55:19;;;;;;;4.45;2.03;;;;;;;17.26;100.00;101383.81;5086375;28;20024;-67
2022/10/26 10:58:02;;;;;;;8.15;2.30;;;;;;;17.66;100.00;101383.69;5090962;28;20051;-66
2022/10/26 11:00:28;;;;;;;9.23;2.30;;;;;;;17.96;100.00;101396.88;5092726;28;20028;-66
2022/10/26 11:03:13;;;;;;;9.38;2.05;;;;;;;18.03;100.00;101398.66;5093592;28;20027;-67
2022/10/26 11:05:59;;;;;;;4.15;1.83;;;;;;;18.24;100.00;101402.94;5077796;28;20040;-66
2022/10/26 11:08:32;;;;;;;5.43;2.05;;;;;;;18.51;100.00;101407.19;5081986;28;20024;-66
2022/10/26 11:11:09;;;;;;;12.23;2.30;;;;;;;18.51;100.00;101401.88;5077980;28;20037;-66
2022/10/26 11:13:37;;;;;;;6.35;1.90;;;;;;;18.61;100.00;101407.13;5086346;28;20123;-66
2022/10/26 11:16:12;;;;;;;8.55;2.55;;;;;;;18.60;100.00;101411.59;5079614;28;20032;-68
2022/10/26 11:18:47;;;;;;;12.52;2.35;;;;;;;18.75;100.00;101420.38;5081416;28;20024;-66
2022/10/26 11:21:27;;;;;;;5.90;1.73;;;;;;;18.70;100.00;101433.72;5087112;28;20472;-66
2022/10/26 11:24:09;;;;;;;7.80;2.28;;;;;;;18.39;100.00;101428.59;5080741;28;20016;-66
2022/10/26 11:26:57;;;;;;;5.50;1.70;;;;;;;18.34;100.00;101435.78;5075211;28;20054;-66
2022/10/26 11:29:23;;;;;;;8.60;2.25;;;;;;;18.36;100.00;101439.28;5082774;28;20044;-66
2022/10/26 11:31:59;;;;;;;8.73;2.45;;;;;;;18.59;100.00;101430.25;5091159;28;20052;-65